Terminal Aerodrome Forecast
Issued by NWS

Home | Current Version | Previous Version | Text Only | Print | Product List | Glossary On
Versions: 1 2 3 4 5 6 7 8 9 10 11 12 13
425
FTUS42 KTAE 221120
TAFVLD
TAF
KVLD 221120Z 2212/2312 08010KT P6SM OVC050
     FM221500 12012G18KT P6SM VCSH SCT025 OVC050
     FM222100 12012G20KT 4SM TSRA SCT007 BKN025CB
     FM230600 11008KT 6SM RA OVC007=

USA.gov is the U.S. government's official web portal to all federal, state and local government web resources and services.